Time;durP1;ratioP1;P1;durP2;ratioP2;P2;SDS_P1;SDS_P2;PMS_P1;PMS_P2;Temp;Humidity;BMP_temperature;BMP_pressure;BME280_temperature;BME280_humidity;BME280_pressure;Samples;Min_cycle;Max_cycle;Signal;HPM_P1;HPM_P2
2021/08/19 00:01:17;;;;;;;0.40;0.30;;;17.30;99.90;;;;;;5114367;28;20459;-81
2021/08/19 00:03:44;;;;;;;0.40;0.30;;;17.30;99.90;;;;;;5113642;28;20375;-81
2021/08/19 00:06:10;;;;;;;0.40;0.30;;;17.30;99.90;;;;;;5094479;28;20455;-81
2021/08/19 00:08:36;;;;;;;0.40;0.30;;;17.20;99.90;;;;;;5114243;28;20408;-81
2021/08/19 00:11:01;;;;;;;0.40;0.20;;;17.20;99.90;;;;;;5113197;28;20417;-81
2021/08/19 00:13:28;;;;;;;0.40;0.30;;;17.10;99.90;;;;;;5094943;28;20876;-81
2021/08/19 00:15:56;;;;;;;0.40;0.20;;;17.00;99.90;;;;;;5108392;28;20374;-84
2021/08/19 00:18:22;;;;;;;0.40;0.30;;;17.00;99.90;;;;;;5074758;28;20390;-81
2021/08/19 00:20:49;;;;;;;0.40;0.20;;;17.00;99.90;;;;;;5092469;28;20942;-81
2021/08/19 00:23:15;;;;;;;0.40;0.20;;;16.90;99.90;;;;;;5092295;28;20453;-81
2021/08/19 00:25:41;;;;;;;0.40;0.30;;;16.70;99.90;;;;;;5092676;28;20499;-81
2021/08/19 00:28:07;;;;;;;0.40;0.30;;;16.80;99.90;;;;;;5092150;28;20779;-81
2021/08/19 00:30:32;;;;;;;0.40;0.30;;;16.70;99.90;;;;;;5092814;28;20379;-80
2021/08/19 00:32:58;;;;;;;0.40;0.20;;;16.70;99.90;;;;;;5073964;28;20384;-81
2021/08/19 00:35:23;;;;;;;0.40;0.20;;;16.70;99.90;;;;;;5092835;28;20385;-80
2021/08/19 00:37:49;;;;;;;0.40;0.30;;;16.60;99.90;;;;;;5092129;28;20394;-80
2021/08/19 00:40:15;;;;;;;0.40;0.20;;;16.70;99.90;;;;;;5091831;28;20386;-80
2021/08/19 00:42:40;;;;;;;0.40;0.20;;;16.80;99.90;;;;;;5092572;28;20386;-80
2021/08/19 00:45:07;;;;;;;0.40;0.30;;;16.60;99.90;;;;;;5073681;28;20484;-80
2021/08/19 00:47:34;;;;;;;0.40;0.30;;;16.60;99.90;;;;;;5092841;28;20730;-80
2021/08/19 00:50:01;;;;;;;0.40;0.20;;;16.50;99.90;;;;;;5091798;28;20457;-80
2021/08/19 00:52:31;;;;;;;0.40;0.20;;;16.60;99.90;;;;;;5074199;28;20401;-80
2021/08/19 00:54:58;;;;;;;0.40;0.30;;;16.60;99.90;;;;;;5091422;28;20418;-83
2021/08/19 00:57:23;;;;;;;0.40;0.20;;;16.60;99.90;;;;;;5092209;28;20378;-80
2021/08/19 00:59:52;;;;;;;0.40;0.30;;;16.60;99.90;;;;;;5092339;28;20378;-80
2021/08/19 01:02:19;;;;;;;0.40;0.20;;;16.40;99.90;;;;;;5091824;28;20383;-80
2021/08/19 01:04:45;;;;;;;0.40;0.20;;;16.50;99.90;;;;;;5099045;28;20413;-80
2021/08/19 01:07:11;;;;;;;0.40;0.30;;;16.50;99.90;;;;;;5091933;28;20401;-80
2021/08/19 01:09:38;;;;;;;0.40;0.30;;;16.50;99.90;;;;;;5106044;28;20837;-80
2021/08/19 01:12:09;;;;;;;0.40;0.20;;;16.50;99.90;;;;;;5112266;28;20372;-80
2021/08/19 01:14:35;;;;;;;0.40;0.20;;;16.40;99.90;;;;;;5080296;28;20398;-80
2021/08/19 01:17:08;;;;;;;0.40;0.20;;;16.40;99.90;;;;;;5105588;28;20389;-80
2021/08/19 01:19:33;;;;;;;0.40;0.30;;;16.40;99.90;;;;;;5094284;28;20384;-80
2021/08/19 01:21:59;;;;;;;0.40;0.20;;;16.40;99.90;;;;;;5111642;28;20484;-80
2021/08/19 01:24:24;;;;;;;0.40;0.20;;;16.40;99.90;;;;;;5112144;28;20467;-81
2021/08/19 01:26:52;;;;;;;0.40;0.20;;;16.50;99.90;;;;;;5094301;28;20403;-80
2021/08/19 01:29:18;;;;;;;0.40;0.20;;;16.50;99.90;;;;;;5111740;28;20441;-80
2021/08/19 01:31:58;;;;;;;0.40;0.30;;;16.50;99.90;;;;;;5112201;28;20380;-80
2021/08/19 01:34:24;;;;;;;0.40;0.20;;;16.40;99.90;;;;;;5112251;28;20441;-80
2021/08/19 01:36:49;;;;;;;0.40;0.20;;;16.40;99.90;;;;;;5112398;28;20383;-80
2021/08/19 01:39:15;;;;;;;0.40;0.30;;;16.40;99.90;;;;;;5111682;28;20807;-79
2021/08/19 01:41:41;;;;;;;0.40;0.20;;;16.40;99.90;;;;;;5093911;28;20426;-80
2021/08/19 01:44:06;;;;;;;0.40;0.30;;;16.50;99.90;;;;;;5111427;28;20459;-80
2021/08/19 01:46:32;;;;;;;0.40;0.20;;;16.40;99.90;;;;;;5112235;28;20385;-80
2021/08/19 01:48:58;;;;;;;0.40;0.20;;;16.40;99.90;;;;;;5111826;28;20376;-81
2021/08/19 01:51:23;;;;;;;0.40;0.30;;;16.40;99.90;;;;;;5093685;28;20786;-80
2021/08/19 01:53:49;;;;;;;0.40;0.20;;;16.40;99.90;;;;;;5111774;28;20740;-82
2021/08/19 01:56:19;;;;;;;0.40;0.25;;;16.40;99.90;;;;;;5110983;28;20408;-80
2021/08/19 01:58:46;;;;;;;0.40;0.20;;;16.50;99.90;;;;;;5111875;28;20375;-80
2021/08/19 02:01:21;;;;;;;0.40;0.20;;;16.40;99.90;;;;;;5111342;28;20463;-80
2021/08/19 02:03:47;;;;;;;0.40;0.30;;;16.40;99.90;;;;;;5111851;28;20385;-80
2021/08/19 02:06:13;;;;;;;0.40;0.30;;;16.50;99.90;;;;;;5092700;28;20412;-79
2021/08/19 02:08:38;;;;;;;0.40;0.20;;;16.50;99.90;;;;;;5111433;28;20381;-80
2021/08/19 02:11:05;;;;;;;0.40;0.20;;;16.40;99.90;;;;;;5110222;28;20381;-80
2021/08/19 02:13:30;;;;;;;0.40;0.20;;;16.40;99.90;;;;;;5110781;28;20387;-79
2021/08/19 02:15:56;;;;;;;0.40;0.20;;;16.30;99.90;;;;;;5087880;28;20469;-80
2021/08/19 02:18:22;;;;;;;0.40;0.30;;;16.30;99.90;;;;;;5090238;28;21331;-80
2021/08/19 02:20:48;;;;;;;0.40;0.20;;;16.40;99.90;;;;;;5072173;28;20469;-80
2021/08/19 02:23:13;;;;;;;0.40;0.20;;;16.30;99.90;;;;;;5090449;28;20851;-79
2021/08/19 02:25:39;;;;;;;0.40;0.20;;;16.30;99.90;;;;;;5090714;28;20421;-79
2021/08/19 02:28:05;;;;;;;0.40;0.20;;;16.30;99.90;;;;;;5090287;28;20432;-80
2021/08/19 02:30:31;;;;;;;0.40;0.20;;;16.30;99.90;;;;;;5072916;28;20514;-80
2021/08/19 02:32:56;;;;;;;0.40;0.27;;;16.40;99.90;;;;;;5091195;28;20397;-79
2021/08/19 02:35:24;;;;;;;0.40;0.20;;;16.40;99.90;;;;;;5071271;28;20704;-79
2021/08/19 02:37:50;;;;;;;0.40;0.30;;;16.40;99.90;;;;;;5072974;28;20498;-80
2021/08/19 02:40:15;;;;;;;0.40;0.30;;;16.40;99.90;;;;;;5090073;28;20427;-80
2021/08/19 02:42:41;;;;;;;0.40;0.30;;;16.40;99.90;;;;;;5091120;28;20378;-79
2021/08/19 02:45:07;;;;;;;0.40;0.20;;;16.30;99.90;;;;;;5090147;28;20410;-79
2021/08/19 02:47:33;;;;;;;0.40;0.20;;;16.40;99.90;;;;;;5091065;28;20781;-79
2021/08/19 02:49:58;;;;;;;0.40;0.30;;;16.40;99.90;;;;;;5072281;28;20374;-80
2021/08/19 02:52:24;;;;;;;0.40;0.20;;;16.30;99.90;;;;;;5089849;28;20439;-79
2021/08/19 02:54:50;;;;;;;0.40;0.30;;;16.30;99.90;;;;;;5090658;28;20766;-80
2021/08/19 02:57:16;;;;;;;0.40;0.20;;;16.30;99.90;;;;;;5090272;28;20374;-79
2021/08/19 02:59:42;;;;;;;0.40;0.20;;;16.30;99.90;;;;;;5090824;28;20370;-79
2021/08/19 03:02:08;;;;;;;0.40;0.20;;;16.30;99.90;;;;;;5090156;28;20428;-80
2021/08/19 03:04:33;;;;;;;0.40;0.20;;;16.30;99.90;;;;;;5098378;28;20897;-80
2021/08/19 03:06:59;;;;;;;0.40;0.20;;;16.30;99.90;;;;;;5094159;28;20393;-79
2021/08/19 03:09:25;;;;;;;0.40;0.20;;;16.20;99.90;;;;;;5096341;28;20766;-79
2021/08/19 03:11:50;;;;;;;0.40;0.20;;;16.20;99.90;;;;;;5110695;28;20460;-79
2021/08/19 03:14:17;;;;;;;0.40;0.20;;;16.20;99.90;;;;;;5088802;28;20390;-80
2021/08/19 03:16:43;;;;;;;0.40;0.30;;;16.20;99.90;;;;;;5101898;28;20462;-80
2021/08/19 03:19:09;;;;;;;0.40;0.30;;;16.20;99.90;;;;;;5110356;28;20391;-79
2021/08/19 03:21:36;;;;;;;0.40;0.30;;;16.20;99.90;;;;;;5110350;28;20404;-79
2021/08/19 03:24:03;;;;;;;0.40;0.30;;;16.30;99.90;;;;;;5110841;28;20505;-79
2021/08/19 03:26:31;;;;;;;0.40;0.20;;;16.30;99.90;;;;;;5110475;28;20376;-79
2021/08/19 03:28:56;;;;;;;0.40;0.20;;;16.20;99.90;;;;;;5110857;28;20381;-79
2021/08/19 03:31:22;;;;;;;0.40;0.20;;;16.20;99.90;;;;;;5110167;28;20433;-79
2021/08/19 03:33:47;;;;;;;0.40;0.20;;;16.30;99.90;;;;;;5092534;28;20384;-80
2021/08/19 03:36:13;;;;;;;0.40;0.20;;;16.20;99.90;;;;;;5091769;28;20424;-80
2021/08/19 03:38:39;;;;;;;0.40;0.30;;;16.30;99.90;;;;;;5092635;28;20384;-79
2021/08/19 03:41:05;;;;;;;0.40;0.20;;;16.30;99.90;;;;;;5110115;28;20381;-80
2021/08/19 03:43:31;;;;;;;0.40;0.20;;;16.30;99.90;;;;;;5110565;28;20476;-79
2021/08/19 03:45:56;;;;;;;0.40;0.30;;;16.30;99.90;;;;;;5110929;28;20403;-79
2021/08/19 03:48:23;;;;;;;0.40;0.20;;;16.30;99.90;;;;;;5113104;28;20879;-80
2021/08/19 03:50:49;;;;;;;0.40;0.20;;;16.20;99.90;;;;;;5113856;28;20435;-79
2021/08/19 03:53:15;;;;;;;0.40;0.20;;;16.30;99.90;;;;;;5113123;28;20384;-79
2021/08/19 03:55:40;;;;;;;0.40;0.30;;;16.20;99.90;;;;;;5113906;28;20634;-80
2021/08/19 03:58:06;;;;;;;0.40;0.20;;;16.20;99.90;;;;;;5113511;28;20463;-84
2021/08/19 04:00:31;;;;;;;0.40;0.20;;;16.20;99.90;;;;;;5095171;28;20381;-80
2021/08/19 04:02:57;;;;;;;0.40;0.20;;;16.30;99.90;;;;;;5114209;28;20724;-79
2021/08/19 04:05:23;;;;;;;0.40;0.30;;;16.20;99.90;;;;;;5112740;28;20489;-79
2021/08/19 04:07:48;;;;;;;0.40;0.20;;;16.20;99.90;;;;;;5113847;28;20381;-79
2021/08/19 04:10:14;;;;;;;0.40;0.20;;;16.20;99.90;;;;;;5113055;28;20372;-80
2021/08/19 04:12:41;;;;;;;0.40;0.20;;;16.20;99.90;;;;;;5095813;28;20415;-79
2021/08/19 04:15:08;;;;;;;0.40;0.20;;;16.30;99.90;;;;;;5113669;28;20380;-84
2021/08/19 04:17:33;;;;;;;0.40;0.20;;;16.20;99.90;;;;;;5076761;28;20429;-79
2021/08/19 04:19:59;;;;;;;0.40;0.20;;;16.30;99.90;;;;;;5093506;28;20402;-79
2021/08/19 04:22:24;;;;;;;0.40;0.20;;;16.20;99.90;;;;;;5092593;28;20398;-79
2021/08/19 04:24:50;;;;;;;0.40;0.20;;;16.30;99.90;;;;;;5094020;28;20446;-79
2021/08/19 04:27:16;;;;;;;0.40;0.30;;;16.30;99.90;;;;;;5092871;28;20863;-79
2021/08/19 04:29:41;;;;;;;0.40;0.20;;;16.20;99.90;;;;;;5093834;28;20424;-79
2021/08/19 04:32:07;;;;;;;0.40;0.20;;;16.20;99.90;;;;;;5092988;28;20382;-81
2021/08/19 04:34:33;;;;;;;0.40;0.20;;;16.30;99.90;;;;;;5093662;28;20385;-79
2021/08/19 04:36:59;;;;;;;0.40;0.20;;;16.20;99.90;;;;;;5093349;28;20863;-79
2021/08/19 04:39:24;;;;;;;0.40;0.30;;;16.30;99.90;;;;;;5092728;28;20846;-79
2021/08/19 04:41:51;;;;;;;0.40;0.30;;;16.30;99.90;;;;;;5093310;28;20469;-79
2021/08/19 04:44:19;;;;;;;0.40;0.20;;;16.30;99.90;;;;;;5092862;28;20382;-79
2021/08/19 04:46:45;;;;;;;0.40;0.27;;;16.30;99.90;;;;;;5075326;28;20406;-79
2021/08/19 04:49:11;;;;;;;0.40;0.20;;;16.30;99.90;;;;;;5092801;28;20382;-79
2021/08/19 04:51:37;;;;;;;0.40;0.20;;;16.30;99.90;;;;;;5093204;28;20390;-79
2021/08/19 04:54:05;;;;;;;0.40;0.20;;;16.30;99.90;;;;;;5075158;28;20397;-79
2021/08/19 04:56:36;;;;;;;0.40;0.30;;;16.30;99.90;;;;;;5074400;28;20485;-79
2021/08/19 04:59:07;;;;;;;0.40;0.20;;;16.40;99.90;;;;;;5074291;28;20445;-79
2021/08/19 05:01:33;;;;;;;0.40;0.30;;;16.40;99.90;;;;;;5092543;28;20378;-79
2021/08/19 05:04:00;;;;;;;0.40;0.20;;;16.30;99.90;;;;;;5094766;28;20382;-79
2021/08/19 05:06:27;;;;;;;0.40;0.30;;;16.40;99.90;;;;;;5095730;28;20379;-79
2021/08/19 05:08:53;;;;;;;0.40;0.20;;;16.30;99.90;;;;;;5093081;28;20378;-80
2021/08/19 05:11:20;;;;;;;0.40;0.20;;;16.30;99.90;;;;;;5112567;28;20383;-79
2021/08/19 05:13:45;;;;;;;0.40;0.20;;;16.30;99.90;;;;;;5112808;28;20388;-79
2021/08/19 05:16:11;;;;;;;0.40;0.20;;;16.40;99.90;;;;;;5107686;28;20380;-80
2021/08/19 05:18:38;;;;;;;0.40;0.20;;;16.40;99.90;;;;;;5113107;28;20376;-78
2021/08/19 05:21:04;;;;;;;0.40;0.30;;;16.30;99.90;;;;;;5112761;28;20404;-78
2021/08/19 05:23:30;;;;;;;0.40;0.30;;;16.30;99.90;;;;;;5112379;28;20392;-80
2021/08/19 05:25:55;;;;;;;0.40;0.27;;;16.30;99.90;;;;;;5112992;28;20445;-78
2021/08/19 05:28:21;;;;;;;0.40;0.30;;;16.20;99.90;;;;;;5093832;28;20477;-79
2021/08/19 05:30:46;;;;;;;0.40;0.30;;;16.20;99.90;;;;;;5094714;28;20384;-79
2021/08/19 05:33:12;;;;;;;0.40;0.20;;;16.30;99.90;;;;;;5112185;28;20792;-79
2021/08/19 05:35:38;;;;;;;0.40;0.20;;;16.30;99.90;;;;;;5112473;28;20719;-79
2021/08/19 05:38:03;;;;;;;0.40;0.20;;;16.40;99.90;;;;;;5112228;28;20939;-79
2021/08/19 05:40:29;;;;;;;0.40;0.20;;;16.40;99.90;;;;;;5111341;28;20840;-79
2021/08/19 05:42:54;;;;;;;0.40;0.20;;;16.40;99.90;;;;;;5112276;28;20460;-79
2021/08/19 05:45:20;;;;;;;0.40;0.20;;;16.40;99.90;;;;;;5108699;28;20696;-78
2021/08/19 05:47:46;;;;;;;0.40;0.20;;;16.30;99.90;;;;;;5106371;28;20378;-79
2021/08/19 05:50:11;;;;;;;0.40;0.20;;;16.50;99.90;;;;;;5092802;28;20410;-84
2021/08/19 05:52:38;;;;;;;0.40;0.20;;;16.50;99.90;;;;;;5073925;28;20390;-79
2021/08/19 05:55:04;;;;;;;0.40;0.20;;;16.60;99.90;;;;;;5092163;28;20388;-78
2021/08/19 05:57:31;;;;;;;0.40;0.30;;;16.60;99.90;;;;;;5090945;28;20389;-79
2021/08/19 05:59:57;;;;;;;0.40;0.20;;;16.60;99.90;;;;;;5091369;28;20390;-80
2021/08/19 06:02:23;;;;;;;0.40;0.20;;;16.60;99.90;;;;;;5072618;28;20401;-78
2021/08/19 06:04:48;;;;;;;0.40;0.30;;;16.60;99.90;;;;;;5074026;28;20471;-78
2021/08/19 06:07:14;;;;;;;0.40;0.25;;;16.70;99.90;;;;;;5099275;28;20737;-79
2021/08/19 06:09:40;;;;;;;0.40;0.20;;;16.70;99.90;;;;;;5085126;28;20385;-78
2021/08/19 06:12:06;;;;;;;0.40;0.20;;;16.80;99.90;;;;;;5102793;28;20444;-79
2021/08/19 06:14:32;;;;;;;0.40;0.20;;;16.70;99.90;;;;;;5094970;28;20390;-78
2021/08/19 06:16:58;;;;;;;0.40;0.30;;;16.80;99.90;;;;;;5103643;28;20520;-78
2021/08/19 06:19:23;;;;;;;0.40;0.20;;;16.80;99.90;;;;;;5097094;28;20942;-77
2021/08/19 06:21:49;;;;;;;0.40;0.30;;;16.80;99.90;;;;;;5096148;28;20437;-78
2021/08/19 06:24:15;;;;;;;0.40;0.30;;;16.90;99.90;;;;;;5110933;28;20868;-79
2021/08/19 06:26:41;;;;;;;0.40;0.30;;;16.80;99.90;;;;;;5111650;28;20425;-78
2021/08/19 06:29:06;;;;;;;0.40;0.30;;;16.80;99.90;;;;;;5111575;28;20373;-78
2021/08/19 06:31:32;;;;;;;0.40;0.20;;;16.80;99.90;;;;;;5093100;28;20380;-76
2021/08/19 06:33:58;;;;;;;0.40;0.30;;;16.80;99.90;;;;;;5111733;28;20383;-77
2021/08/19 06:36:23;;;;;;;0.40;0.30;;;16.90;99.90;;;;;;5111215;28;20411;-77
2021/08/19 06:38:53;;;;;;;0.40;0.20;;;16.90;99.90;;;;;;5093811;28;20376;-77
2021/08/19 06:41:20;;;;;;;0.40;0.30;;;17.00;99.90;;;;;;5110877;28;20947;-77
2021/08/19 06:43:46;;;;;;;0.40;0.30;;;17.20;99.90;;;;;;5111773;28;20416;-79
2021/08/19 06:46:12;;;;;;;0.40;0.30;;;17.10;99.90;;;;;;5111633;28;20841;-79
2021/08/19 06:48:37;;;;;;;0.40;0.30;;;17.20;99.90;;;;;;5102622;28;20503;-80
2021/08/19 06:51:03;;;;;;;0.40;0.20;;;17.20;99.90;;;;;;5080542;28;20410;-80
2021/08/19 06:53:28;;;;;;;0.40;0.20;;;17.20;99.90;;;;;;5098373;28;20500;-80
2021/08/19 06:55:54;;;;;;;0.40;0.30;;;17.20;99.90;;;;;;5099850;28;20378;-79
2021/08/19 06:58:20;;;;;;;0.40;0.20;;;17.30;99.90;;;;;;5081483;28;20409;-78
2021/08/19 07:00:45;;;;;;;0.40;0.20;;;17.30;99.90;;;;;;5099863;28;20381;-80
2021/08/19 07:03:15;;;;;;;0.40;0.20;;;17.30;99.90;;;;;;5091230;28;20887;-79
2021/08/19 07:05:45;;;;;;;0.40;0.30;;;17.40;99.90;;;;;;5082728;28;20440;-79
2021/08/19 07:08:11;;;;;;;0.40;0.20;;;17.40;99.90;;;;;;5096594;28;20548;-79
2021/08/19 07:10:38;;;;;;;0.40;0.20;;;17.40;99.90;;;;;;5073697;28;20716;-80
2021/08/19 07:13:04;;;;;;;0.40;0.20;;;17.40;99.90;;;;;;5111341;28;20706;-80
2021/08/19 07:15:31;;;;;;;0.40;0.20;;;17.50;99.90;;;;;;5110844;28;20403;-79
2021/08/19 07:17:56;;;;;;;0.40;0.20;;;17.50;99.90;;;;;;5093251;28;20729;-80
2021/08/19 07:20:22;;;;;;;0.40;0.20;;;17.60;99.90;;;;;;5110375;28;20377;-79
2021/08/19 07:22:48;;;;;;;0.40;0.20;;;17.50;99.90;;;;;;5115152;28;20440;-79
2021/08/19 07:25:15;;;;;;;0.40;0.30;;;17.60;99.90;;;;;;5115485;28;20917;-79
2021/08/19 07:27:41;;;;;;;0.40;0.20;;;17.60;99.90;;;;;;5096497;28;20609;-79
2021/08/19 07:30:09;;;;;;;0.40;0.30;;;17.70;99.90;;;;;;5107954;28;20396;-80
2021/08/19 07:32:34;;;;;;;0.40;0.30;;;17.80;99.90;;;;;;5114219;28;20377;-80
2021/08/19 07:35:00;;;;;;;0.40;0.30;;;17.80;99.90;;;;;;5114481;28;20372;-81
2021/08/19 07:37:26;;;;;;;0.40;0.20;;;17.90;99.90;;;;;;5096278;28;20388;-79
2021/08/19 07:39:51;;;;;;;0.40;0.20;;;18.00;99.90;;;;;;5114865;28;20463;-80
2021/08/19 07:42:17;;;;;;;0.40;0.30;;;17.90;99.90;;;;;;5110544;28;20384;-80
2021/08/19 07:44:43;;;;;;;0.40;0.30;;;17.90;99.90;;;;;;5093730;28;20745;-80
2021/08/19 07:47:08;;;;;;;0.40;0.40;;;17.90;99.90;;;;;;5096335;28;20388;-78
2021/08/19 07:49:35;;;;;;;0.40;0.30;;;17.90;99.90;;;;;;5091931;28;20791;-79
2021/08/19 07:52:01;;;;;;;0.40;0.20;;;18.00;99.90;;;;;;5093757;28;20390;-79
2021/08/19 07:54:27;;;;;;;0.40;0.20;;;18.00;99.90;;;;;;5093444;28;20390;-79
2021/08/19 07:56:53;;;;;;;0.40;0.30;;;18.00;99.90;;;;;;5094919;28;20393;-79
2021/08/19 07:59:22;;;;;;;0.40;0.20;;;18.00;99.90;;;;;;5105180;28;20426;-79
2021/08/19 08:01:47;;;;;;;0.40;0.20;;;17.80;99.90;;;;;;5114393;28;20418;-79
2021/08/19 08:04:13;;;;;;;0.40;0.30;;;18.30;99.90;;;;;;5114236;28;20412;-79
2021/08/19 08:06:40;;;;;;;0.40;0.20;;;18.40;99.90;;;;;;5113867;28;20610;-79
2021/08/19 08:09:06;;;;;;;0.40;0.20;;;18.40;99.90;;;;;;5114559;28;20827;-80
2021/08/19 08:11:32;;;;;;;0.40;0.20;;;18.40;99.90;;;;;;5114032;28;20414;-79
2021/08/19 08:13:58;;;;;;;0.40;0.20;;;18.40;99.90;;;;;;5114252;28;20372;-79
2021/08/19 08:16:24;;;;;;;0.40;0.30;;;18.50;99.90;;;;;;5114038;28;20408;-80
2021/08/19 08:18:50;;;;;;;0.40;0.20;;;18.50;99.90;;;;;;5114292;28;20422;-79
2021/08/19 08:21:16;;;;;;;0.40;0.30;;;18.60;99.90;;;;;;5114163;28;20388;-78
2021/08/19 08:23:42;;;;;;;0.40;0.20;;;18.60;99.90;;;;;;5113636;28;20510;-79
2021/08/19 08:26:10;;;;;;;0.40;0.20;;;18.80;99.90;;;;;;5114275;28;20752;-79
2021/08/19 08:28:36;;;;;;;0.40;0.20;;;18.90;99.90;;;;;;5113928;28;20690;-78
2021/08/19 08:31:03;;;;;;;0.40;0.20;;;18.80;99.90;;;;;;5113958;28;20377;-79
2021/08/19 08:33:31;;;;;;;0.40;0.30;;;18.50;99.90;;;;;;5113076;28;20380;-78
2021/08/19 08:35:58;;;;;;;0.40;0.30;;;18.50;99.90;;;;;;5113981;28;20380;-79
2021/08/19 08:38:25;;;;;;;0.40;0.20;;;18.50;99.90;;;;;;5113462;28;20406;-79
2021/08/19 08:40:53;;;;;;;0.40;0.30;;;18.60;99.90;;;;;;5113938;28;20381;-79
2021/08/19 08:43:20;;;;;;;0.40;0.20;;;18.90;99.90;;;;;;5114021;28;20377;-79
2021/08/19 08:45:47;;;;;;;0.40;0.30;;;18.80;99.90;;;;;;5112813;28;20404;-80
2021/08/19 08:48:18;;;;;;;0.40;0.22;;;18.90;99.90;;;;;;5114004;28;20373;-80
2021/08/19 08:50:46;;;;;;;0.40;0.30;;;19.00;99.90;;;;;;5113277;28;20460;-79
2021/08/19 08:53:13;;;;;;;0.40;0.20;;;19.00;99.90;;;;;;5113569;28;20415;-80
2021/08/19 08:55:39;;;;;;;0.40;0.30;;;19.00;99.90;;;;;;5094375;28;20381;-79
2021/08/19 08:58:06;;;;;;;0.40;0.20;;;19.10;99.90;;;;;;5113349;28;20376;-79
2021/08/19 09:00:32;;;;;;;0.40;0.30;;;19.00;99.90;;;;;;5113214;28;20461;-81
2021/08/19 09:02:58;;;;;;;0.40;0.30;;;19.20;99.90;;;;;;5113520;28;20765;-78
2021/08/19 09:05:26;;;;;;;0.40;0.30;;;19.30;99.90;;;;;;5112824;28;20405;-83
2021/08/19 09:07:55;;;;;;;0.40;0.20;;;19.20;99.90;;;;;;5113490;28;20369;-77
2021/08/19 09:10:24;;;;;;;0.40;0.30;;;19.30;99.90;;;;;;5100534;28;20376;-76
2021/08/19 09:12:51;;;;;;;0.40;0.20;;;19.30;99.90;;;;;;5104830;28;20426;-78
2021/08/19 09:15:19;;;;;;;0.40;0.20;;;19.40;99.90;;;;;;5104816;28;20376;-78
2021/08/19 09:17:51;;;;;;;0.40;0.20;;;19.30;99.90;;;;;;5102467;28;20408;-82
2021/08/19 09:20:33;;;;;;;0.40;0.20;;;19.50;99.90;;;;;;5105436;28;20386;-81
2021/08/19 09:23:13;;;;;;;0.40;0.20;;;19.50;99.90;;;;;;5093258;28;20400;-80
2021/08/19 09:25:45;;;;;;;0.40;0.30;;;19.50;99.90;;;;;;5073914;28;20524;-83
2021/08/19 09:28:18;;;;;;;0.40;0.20;;;19.70;99.90;;;;;;5072044;28;20637;-77
2021/08/19 09:31:03;;;;;;;0.40;0.20;;;19.70;99.90;;;;;;5089012;28;21445;-77
2021/08/19 09:33:31;;;;;;;0.40;0.20;;;19.70;99.90;;;;;;5071512;28;20408;-79
2021/08/19 09:36:08;;;;;;;0.40;0.20;;;19.90;99.90;;;;;;5088421;28;20378;-76
2021/08/19 09:38:40;;;;;;;0.40;0.30;;;19.60;99.90;;;;;;5089089;28;20866;-76
2021/08/19 09:41:21;;;;;;;0.40;0.20;;;19.90;99.90;;;;;;5085073;28;20931;-78
2021/08/19 09:43:48;;;;;;;0.40;0.30;;;19.70;99.90;;;;;;5094401;28;20550;-74
2021/08/19 09:46:37;;;;;;;0.40;0.20;;;19.60;99.90;;;;;;5101454;28;20484;-75
2021/08/19 09:49:28;;;;;;;0.40;0.20;;;19.70;99.90;;;;;;5101784;28;20385;-74
2021/08/19 09:52:11;;;;;;;0.40;0.20;;;19.70;99.90;;;;;;5106308;28;20381;-78
2021/08/19 09:54:41;;;;;;;0.40;0.20;;;19.70;99.90;;;;;;5103446;28;20412;-73
2021/08/19 09:57:08;;;;;;;0.40;0.20;;;19.70;99.90;;;;;;5102973;28;20376;-75
2021/08/19 09:59:39;;;;;;;0.40;0.30;;;19.60;99.90;;;;;;5100595;28;20415;-76
2021/08/19 10:02:06;;;;;;;0.40;0.30;;;19.80;99.90;;;;;;5109565;28;20748;-72
2021/08/19 10:04:32;;;;;;;0.40;0.20;;;19.70;99.90;;;;;;5111449;28;20404;-76
2021/08/19 10:06:59;;;;;;;0.40;0.20;;;19.90;99.90;;;;;;5099410;28;20372;-76
2021/08/19 10:09:26;;;;;;;0.40;0.20;;;20.10;99.90;;;;;;5101689;28;20387;-76
2021/08/19 10:11:56;;;;;;;0.40;0.20;;;20.30;99.90;;;;;;5091579;28;20863;-78
2021/08/19 10:14:28;;;;;;;0.40;0.30;;;20.00;99.90;;;;;;5091616;28;20433;-85
2021/08/19 10:16:55;;;;;;;0.40;0.30;;;20.30;99.90;;;;;;5084823;28;20897;-78
2021/08/19 10:19:34;;;;;;;0.40;0.30;;;20.50;99.90;;;;;;5069443;28;20471;-77
2021/08/19 10:22:20;;;;;;;0.40;0.30;;;20.60;99.90;;;;;;5085696;28;20469;-77
2021/08/19 10:24:54;;;;;;;0.40;0.30;;;20.70;99.90;;;;;;5088894;28;20477;-82
2021/08/19 10:27:25;;;;;;;0.40;0.30;;;20.50;99.90;;;;;;5089134;28;20386;-81
2021/08/19 10:29:53;;;;;;;0.40;0.25;;;20.60;99.90;;;;;;5087480;28;20483;-80
2021/08/19 10:32:31;;;;;;;0.40;0.20;;;20.40;99.90;;;;;;5086997;28;20395;-81
2021/08/19 10:34:56;;;;;;;0.40;0.20;;;20.50;99.90;;;;;;5086792;28;20406;-79
2021/08/19 10:37:48;;;;;;;0.40;0.30;;;20.90;99.90;;;;;;5088974;28;20425;-79
2021/08/19 10:40:19;;;;;;;0.40;0.20;;;21.10;99.90;;;;;;5089902;28;20384;-82
2021/08/19 10:42:45;;;;;;;0.40;0.20;;;21.20;99.90;;;;;;5086607;28;20397;-79
2021/08/19 10:45:26;;;;;;;0.40;0.20;;;21.40;99.90;;;;;;5088668;28;20414;-81
2021/08/19 10:47:53;;;;;;;0.40;0.30;;;21.30;99.90;;;;;;5100772;28;20429;-77
2021/08/19 10:50:26;;;;;;;0.40;0.20;;;21.40;99.90;;;;;;5111612;28;20384;-76
2021/08/19 10:52:51;;;;;;;0.40;0.30;;;21.00;99.90;;;;;;5111004;28;20396;-75
2021/08/19 10:55:19;;;;;;;0.40;0.20;;;21.40;99.90;;;;;;5111415;28;20391;-76
2021/08/19 10:57:53;;;;;;;0.40;0.30;;;21.40;99.90;;;;;;5113993;28;21014;-76
2021/08/19 11:00:37;;;;;;;0.40;0.20;;;21.10;99.90;;;;;;5097045;28;20718;-75
2021/08/19 11:03:03;;;;;;;0.40;0.20;;;21.00;99.90;;;;;;5115649;28;20420;-75
2021/08/19 11:05:29;;;;;;;0.40;0.30;;;20.90;99.90;;;;;;5115316;28;20411;-75
2021/08/19 11:08:00;;;;;;;0.40;0.30;;;20.80;99.90;;;;;;5115017;28;20384;-75
2021/08/19 11:10:37;;;;;;;0.40;0.20;;;20.60;99.90;;;;;;5115509;28;20412;-75
2021/08/19 11:13:07;;;;;;;0.40;0.30;;;20.80;99.90;;;;;;5115382;28;20390;-76
2021/08/19 11:15:37;;;;;;;0.40;0.30;;;21.30;99.90;;;;;;5113506;28;20392;-88
2021/08/19 11:18:03;;;;;;;0.40;0.20;;;21.30;99.90;;;;;;5095058;28;20792;-76
2021/08/19 11:20:34;;;;;;;0.40;0.28;;;20.90;99.90;;;;;;5094510;28;20711;-76
2021/08/19 11:23:10;;;;;;;0.40;0.30;;;20.90;99.90;;;;;;5094811;28;20390;-76
2021/08/19 11:25:38;;;;;;;0.40;0.20;;;20.80;99.90;;;;;;5094058;28;20412;-75
2021/08/19 11:28:15;;;;;;;0.40;0.30;;;21.00;99.90;;;;;;5094426;28;20379;-76
2021/08/19 11:30:45;;;;;;;0.40;0.30;;;20.80;99.90;;;;;;5094047;28;20382;-75
2021/08/19 11:33:14;;;;;;;0.40;0.20;;;20.70;99.90;;;;;;5094642;28;20389;-74
2021/08/19 11:35:42;;;;;;;0.40;0.22;;;20.70;99.90;;;;;;5094197;28;20477;-75
2021/08/19 11:38:16;;;;;;;0.40;0.30;;;21.50;99.90;;;;;;5094701;28;20382;-74
2021/08/19 11:40:44;;;;;;;0.40;0.20;;;22.00;99.90;;;;;;5094001;28;20386;-75
2021/08/19 11:43:28;;;;;;;0.40;0.30;;;21.90;99.90;;;;;;5094504;28;20378;-75
2021/08/19 11:46:09;;;;;;;0.40;0.20;;;21.40;99.90;;;;;;5093669;28;20804;-75
2021/08/19 11:48:37;;;;;;;0.40;0.20;;;21.20;99.90;;;;;;5094162;28;20385;-84
2021/08/19 11:51:05;;;;;;;0.40;0.20;;;21.20;99.90;;;;;;5104566;28;20736;-75
2021/08/19 11:53:31;;;;;;;0.40;0.30;;;21.30;99.90;;;;;;5099434;28;20734;-75
2021/08/19 11:56:12;;;;;;;0.40;0.20;;;21.20;99.90;;;;;;5095857;28;20459;-74
2021/08/19 11:58:38;;;;;;;0.40;0.20;;;21.20;99.90;;;;;;5113853;28;20387;-83
2021/08/19 12:01:09;;;;;;;0.40;0.30;;;21.10;99.90;;;;;;5112708;28;20381;-75
2021/08/19 12:03:37;;;;;;;0.40;0.20;;;21.30;99.90;;;;;;5114440;28;20384;-75
2021/08/19 12:06:13;;;;;;;0.40;0.20;;;21.10;99.90;;;;;;5109165;28;20404;-75
2021/08/19 12:08:46;;;;;;;0.40;0.20;;;21.30;99.90;;;;;;5103429;28;20380;-85
2021/08/19 12:11:17;;;;;;;0.40;0.30;;;21.00;99.90;;;;;;5099662;28;20390;-76
2021/08/19 12:13:45;;;;;;;0.40;0.30;;;21.00;99.90;;;;;;5092746;28;20378;-76
2021/08/19 12:16:12;;;;;;;0.40;0.30;;;20.90;99.90;;;;;;5106745;28;20380;-74
2021/08/19 12:18:37;;;;;;;0.40;0.30;;;20.80;99.90;;;;;;5113484;28;20373;-79
2021/08/19 12:21:14;;;;;;;0.40;0.30;;;20.70;99.90;;;;;;5103146;28;20404;-73
2021/08/19 12:23:40;;;;;;;0.40;0.30;;;20.50;99.90;;;;;;5095326;28;20443;-79
2021/08/19 12:26:11;;;;;;;0.40;0.20;;;20.50;99.90;;;;;;5092879;28;20449;-79
2021/08/19 12:28:38;;;;;;;0.40;0.30;;;20.30;99.90;;;;;;5091643;28;20859;-79
2021/08/19 12:31:08;;;;;;;0.40;0.20;;;20.30;99.90;;;;;;5091540;28;20375;-80
2021/08/19 12:33:40;;;;;;;0.40;0.30;;;20.30;99.90;;;;;;5093134;28;20370;-80
2021/08/19 12:36:16;;;;;;;0.40;0.30;;;20.40;99.90;;;;;;5093533;28;20727;-79
2021/08/19 12:38:44;;;;;;;0.40;0.20;;;20.50;99.90;;;;;;5093044;28;20386;-79
2021/08/19 12:41:24;;;;;;;0.40;0.30;;;20.50;99.90;;;;;;5093660;28;20789;-78
2021/08/19 12:44:07;;;;;;;0.40;0.30;;;20.50;99.90;;;;;;5092882;28;20379;-78
2021/08/19 12:46:41;;;;;;;0.40;0.30;;;20.70;99.90;;;;;;5075284;28;20410;-78
2021/08/19 12:49:26;;;;;;;0.40;0.30;;;20.80;99.90;;;;;;5093701;28;20473;-78
2021/08/19 12:52:19;;;;;;;0.40;0.30;;;20.80;99.90;;;;;;5092748;28;20874;-83